Time;durP1;ratioP1;P1;durP2;ratioP2;P2;SDS_P1;SDS_P2;PMS_P1;PMS_P2;Temp;Humidity;BMP_temperature;BMP_pressure;BME280_temperature;BME280_humidity;BME280_pressure;Samples;Min_cycle;Max_cycle;Signal;HPM_P1;HPM_P2
2022/04/11 00:01:17;;;;;;;0.30;0.10;;;0.60;99.90;;;;;;5043670;28;20463;-84
2022/04/11 00:03:44;;;;;;;0.30;0.10;;;0.60;99.90;;;;;;5044831;28;20480;-83
2022/04/11 00:06:11;;;;;;;0.30;0.10;;;0.60;99.90;;;;;;5046644;28;20453;-87
2022/04/11 00:08:38;;;;;;;0.40;0.30;;;0.60;99.90;;;;;;5040984;28;20479;-84
2022/04/11 00:11:05;;;;;;;0.30;0.10;;;0.60;99.90;;;;;;5047263;28;20475;-87
2022/04/11 00:13:33;;;;;;;0.30;0.10;;;0.60;99.90;;;;;;5037275;28;20547;-85
2022/04/11 00:16:00;;;;;;;0.30;0.10;;;0.70;99.90;;;;;;5028250;28;20507;-86
2022/04/11 00:18:28;;;;;;;0.30;0.10;;;0.80;99.90;;;;;;5046196;28;20464;-84
2022/04/11 00:20:54;;;;;;;0.30;0.10;;;0.70;99.90;;;;;;5038811;28;20873;-85
2022/04/11 00:23:21;;;;;;;0.30;0.10;;;0.60;99.90;;;;;;5026857;28;20438;-84
2022/04/11 00:25:48;;;;;;;0.50;0.50;;;0.50;99.90;;;;;;5042619;28;20989;-86
2022/04/11 00:28:15;;;;;;;0.30;0.10;;;0.50;99.90;;;;;;5044823;28;20740;-84
2022/04/11 00:30:44;;;;;;;0.30;0.10;;;0.50;99.90;;;;;;5047638;28;20452;-86
2022/04/11 00:33:11;;;;;;;0.30;0.10;;;0.40;99.90;;;;;;5045044;28;20484;-84
2022/04/11 00:35:38;;;;;;;0.30;0.10;;;0.60;99.90;;;;;;5049017;28;20464;-84
2022/04/11 00:38:05;;;;;;;0.30;0.10;;;0.50;99.90;;;;;;5046313;28;20522;-85
2022/04/11 00:40:31;;;;;;;0.30;0.10;;;0.60;99.90;;;;;;5043526;28;20465;-84
2022/04/11 00:42:58;;;;;;;0.30;0.10;;;0.60;99.90;;;;;;5047929;28;20460;-84
2022/04/11 00:45:26;;;;;;;0.30;0.10;;;0.60;99.90;;;;;;5049368;28;20460;-86
2022/04/11 00:47:54;;;;;;;0.30;0.10;;;0.60;99.90;;;;;;5049369;28;20557;-86
2022/04/11 00:50:22;;;;;;;0.63;0.20;;;0.70;99.90;;;;;;5049728;28;21012;-85
2022/04/11 00:52:51;;;;;;;0.30;0.10;;;0.70;99.90;;;;;;5032795;28;20465;-85
2022/04/11 00:55:21;;;;;;;0.30;0.10;;;0.60;99.90;;;;;;5032362;28;20453;-85
2022/04/11 00:57:48;;;;;;;0.40;0.30;;;0.50;99.90;;;;;;5043753;28;21298;-86
2022/04/11 01:00:17;;;;;;;0.30;0.10;;;0.60;99.90;;;;;;5049466;28;20464;-87
2022/04/11 01:02:44;;;;;;;0.30;0.13;;;0.50;99.90;;;;;;5050806;28;20452;-87
2022/04/11 01:05:13;;;;;;;0.30;0.10;;;0.50;99.90;;;;;;5049642;28;20452;-85
2022/04/11 01:07:41;;;;;;;0.30;0.10;;;0.40;99.90;;;;;;5040970;28;20488;-85
2022/04/11 01:10:10;;;;;;;0.30;0.20;;;0.40;99.90;;;;;;5049752;28;20461;-84
2022/04/11 01:12:37;;;;;;;0.30;0.20;;;0.30;99.90;;;;;;5056963;28;20465;-84
2022/04/11 01:15:05;;;;;;;0.30;0.10;;;0.20;99.90;;;;;;5073296;28;20436;-85
2022/04/11 01:17:33;;;;;;;0.30;0.10;;;0.20;99.90;;;;;;5072453;28;20449;-85
2022/04/11 01:20:06;;;;;;;0.30;0.10;;;0.20;99.90;;;;;;5072462;28;20465;-84
2022/04/11 01:22:34;;;;;;;0.30;0.10;;;0.30;99.90;;;;;;5059247;28;20453;-87
2022/04/11 01:25:02;;;;;;;0.30;0.10;;;0.30;99.90;;;;;;5050487;28;20505;-85
2022/04/11 01:27:31;;;;;;;0.30;0.10;;;0.20;99.90;;;;;;5051996;28;20460;-86
2022/04/11 01:29:58;;;;;;;0.30;0.10;;;0.20;99.90;;;;;;5072834;28;20443;-88
2022/04/11 01:32:25;;;;;;;0.30;0.10;;;0.20;99.90;;;;;;5049247;28;20472;-88
2022/04/11 01:34:52;;;;;;;0.30;0.10;;;0.20;99.90;;;;;;5041359;28;20547;-87
2022/04/11 01:37:19;;;;;;;0.30;0.20;;;0.10;99.90;;;;;;5047399;28;20468;-86
2022/04/11 01:39:47;;;;;;;0.30;0.13;;;0.10;99.90;;;;;;5049672;28;20475;-87
2022/04/11 01:42:14;;;;;;;0.30;0.10;;;0.30;99.90;;;;;;5049594;28;20510;-86
2022/04/11 01:44:41;;;;;;;0.30;0.10;;;0.30;99.90;;;;;;5049658;28;20456;-85
2022/04/11 01:47:08;;;;;;;0.40;0.20;;;0.30;99.90;;;;;;5048801;28;20467;-87
2022/04/11 01:49:35;;;;;;;0.30;0.10;;;0.30;99.90;;;;;;5049918;28;20476;-87
2022/04/11 01:52:02;;;;;;;0.30;0.10;;;0.30;99.90;;;;;;5036730;28;20548;-86
2022/04/11 01:54:29;;;;;;;0.40;0.40;;;0.30;99.90;;;;;;5047979;28;20465;-87
2022/04/11 01:56:58;;;;;;;0.40;0.37;;;0.40;99.90;;;;;;5047927;28;20519;-85
2022/04/11 01:59:25;;;;;;;0.30;0.10;;;0.30;99.90;;;;;;5047520;28;20554;-86
2022/04/11 02:01:51;;;;;;;0.30;0.10;;;0.30;99.90;;;;;;5038554;28;20468;-85
2022/04/11 02:04:18;;;;;;;0.30;0.10;;;0.30;99.90;;;;;;5055730;28;20525;-86
2022/04/11 02:06:45;;;;;;;0.30;0.10;;;0.30;99.90;;;;;;5052112;28;20736;-85
2022/04/11 02:09:12;;;;;;;0.30;0.10;;;0.30;99.90;;;;;;5049826;28;21017;-85
2022/04/11 02:11:39;;;;;;;0.30;0.10;;;0.30;99.90;;;;;;5049066;28;21130;-86
2022/04/11 02:14:08;;;;;;;0.30;0.10;;;0.30;99.90;;;;;;5042576;28;20496;-85
2022/04/11 02:16:36;;;;;;;0.30;0.17;;;0.20;99.90;;;;;;5047877;28;20495;-86
2022/04/11 02:19:04;;;;;;;0.30;0.10;;;0.10;99.90;;;;;;5064644;28;20468;-87
2022/04/11 02:21:32;;;;;;;0.30;0.10;;;0.00;99.90;;;;;;5066051;28;20502;-85
2022/04/11 02:24:00;;;;;;;0.40;0.40;;;0.00;99.90;;;;;;5056678;28;20489;-84
2022/04/11 02:26:27;;;;;;;0.30;0.13;;;0.10;99.90;;;;;;5057290;28;20487;-84
2022/04/11 02:28:54;;;;;;;0.30;0.20;;;0.20;99.90;;;;;;5059081;28;20495;-84
2022/04/11 02:31:22;;;;;;;0.30;0.10;;;0.30;99.90;;;;;;5061032;28;20503;-85
2022/04/11 02:33:49;;;;;;;0.30;0.10;;;0.40;99.90;;;;;;5055749;28;20922;-84
2022/04/11 02:36:16;;;;;;;0.40;0.20;;;0.40;99.90;;;;;;5058837;28;20460;-84
2022/04/11 02:38:44;;;;;;;0.30;0.20;;;0.30;99.90;;;;;;5062999;28;20974;-88
2022/04/11 02:41:11;;;;;;;0.30;0.10;;;0.30;99.90;;;;;;5065077;28;21023;-86
2022/04/11 02:43:38;;;;;;;0.30;0.10;;;0.40;99.90;;;;;;5054086;28;20487;-86
2022/04/11 02:46:05;;;;;;;0.30;0.20;;;0.40;99.90;;;;;;5053661;28;20468;-87
2022/04/11 02:48:34;;;;;;;0.30;0.20;;;0.30;99.90;;;;;;5060315;28;20596;-87
2022/04/11 02:51:01;;;;;;;0.30;0.10;;;0.40;99.90;;;;;;5068635;28;21041;-87
2022/04/11 02:53:28;;;;;;;0.30;0.20;;;0.40;99.90;;;;;;5055502;28;21000;-86
2022/04/11 02:55:55;;;;;;;0.30;0.10;;;0.40;99.90;;;;;;5046584;28;20835;-86
2022/04/11 02:58:22;;;;;;;0.30;0.20;;;0.30;99.90;;;;;;5048464;28;20928;-83
2022/04/11 03:00:49;;;;;;;0.30;0.20;;;0.20;99.90;;;;;;5037355;28;20947;-84
2022/04/11 03:03:16;;;;;;;0.30;0.20;;;0.10;99.90;;;;;;5042303;28;20469;-85
2022/04/11 03:05:44;;;;;;;0.30;0.20;;;0.00;99.90;;;;;;5048997;28;20819;-87
2022/04/11 03:08:11;;;;;;;0.30;0.20;;;-0.20;99.90;;;;;;5050972;28;20444;-84
2022/04/11 03:10:38;;;;;;;0.30;0.20;;;-0.20;99.90;;;;;;5047168;28;20523;-84
2022/04/11 03:13:05;;;;;;;0.30;0.20;;;-0.30;99.90;;;;;;5047537;28;20471;-88
2022/04/11 03:15:32;;;;;;;0.30;0.10;;;-0.40;99.90;;;;;;5061593;28;20460;-86
2022/04/11 03:17:59;;;;;;;0.30;0.10;;;-0.50;99.90;;;;;;5074022;28;20444;-86
2022/04/11 03:20:26;;;;;;;0.30;0.10;;;-0.50;99.90;;;;;;5051634;28;20534;-88
2022/04/11 03:22:54;;;;;;;0.30;0.10;;;-0.60;99.90;;;;;;5045986;28;20459;-87
2022/04/11 03:25:21;;;;;;;0.30;0.20;;;-0.60;99.90;;;;;;5047624;28;20518;-89
2022/04/11 03:27:49;;;;;;;0.30;0.10;;;-0.70;99.90;;;;;;5029701;28;20683;-87
2022/04/11 03:30:17;;;;;;;0.30;0.20;;;-0.70;99.90;;;;;;5047525;28;20497;-88
2022/04/11 03:32:44;;;;;;;0.30;0.20;;;-0.70;99.90;;;;;;5047056;28;20718;-87
2022/04/11 03:35:11;;;;;;;0.40;0.23;;;-0.80;99.90;;;;;;5047608;28;20989;-87
2022/04/11 03:37:38;;;;;;;0.30;0.10;;;-0.90;99.90;;;;;;5047073;28;20861;-86
2022/04/11 03:40:08;;;;;;;0.30;0.10;;;-0.90;99.90;;;;;;5038867;28;20885;-87
2022/04/11 03:42:35;;;;;;;0.30;0.10;;;-0.90;99.90;;;;;;5028160;28;20444;-88
2022/04/11 03:45:04;;;;;;;0.30;0.20;;;-0.80;99.90;;;;;;5067236;28;21035;-87
2022/04/11 03:47:32;;;;;;;0.30;0.10;;;-0.80;99.90;;;;;;5047472;28;20464;-87
2022/04/11 03:49:59;;;;;;;0.30;0.10;;;-0.80;99.90;;;;;;5047091;28;21010;-88
2022/04/11 03:52:26;;;;;;;0.30;0.10;;;-0.80;99.90;;;;;;5047922;28;21269;-89
2022/04/11 03:54:53;;;;;;;0.30;0.10;;;-0.90;99.90;;;;;;5048709;28;20449;-86
2022/04/11 03:57:22;;;;;;;0.30;0.10;;;-1.00;99.90;;;;;;5061297;28;20464;-86
2022/04/11 03:59:49;;;;;;;0.30;0.20;;;-1.00;99.90;;;;;;5068974;28;20452;-85
2022/04/11 04:02:16;;;;;;;0.30;0.10;;;-1.00;99.90;;;;;;5039190;28;20465;-88
2022/04/11 04:04:43;;;;;;;0.30;0.10;;;-1.00;99.90;;;;;;5029133;28;20436;-86
2022/04/11 04:07:10;;;;;;;0.30;0.10;;;-1.10;99.90;;;;;;5046841;28;21272;-87
2022/04/11 04:09:37;;;;;;;0.30;0.10;;;-1.10;99.90;;;;;;5054610;28;20478;-88
2022/04/11 04:12:05;;;;;;;0.30;0.10;;;-1.10;99.90;;;;;;5060591;28;20517;-88
2022/04/11 04:14:33;;;;;;;0.30;0.10;;;-1.10;99.90;;;;;;5045071;28;20515;-87
2022/04/11 04:17:00;;;;;;;0.40;0.32;;;-1.10;99.90;;;;;;5065772;28;20787;-88
2022/04/11 04:19:27;;;;;;;0.30;0.10;;;-1.20;99.90;;;;;;5055678;28;21107;-88
2022/04/11 04:21:54;;;;;;;0.30;0.10;;;-1.20;99.90;;;;;;5051990;28;20975;-89
2022/04/11 04:24:22;;;;;;;0.30;0.10;;;-1.20;99.90;;;;;;5060609;28;21094;-89
2022/04/11 04:26:49;;;;;;;0.40;0.20;;;-1.20;99.90;;;;;;5054597;28;20462;-88
2022/04/11 04:29:17;;;;;;;0.30;0.20;;;-1.20;99.90;;;;;;5065593;28;20490;-87
2022/04/11 04:31:45;;;;;;;0.30;0.10;;;-1.20;99.90;;;;;;5055168;28;20929;-88
2022/04/11 04:34:12;;;;;;;0.30;0.10;;;-1.20;99.90;;;;;;5058022;28;20860;-88
2022/04/11 04:36:39;;;;;;;0.30;0.20;;;-1.10;99.90;;;;;;5057555;28;20472;-87
2022/04/11 04:39:06;;;;;;;0.30;0.10;;;-1.10;99.90;;;;;;5053234;28;20508;-88
2022/04/11 04:41:33;;;;;;;0.30;0.10;;;-1.10;99.90;;;;;;5054167;28;20455;-88
2022/04/11 04:44:00;;;;;;;0.30;0.10;;;-1.00;99.90;;;;;;5051972;28;20209;-89
2022/04/11 04:46:27;;;;;;;2.10;0.70;;;-1.00;99.90;;;;;;5050468;28;20198;-87
2022/04/11 04:48:56;;;;;;;0.30;0.10;;;-1.00;99.90;;;;;;5053017;28;20531;-86
2022/04/11 04:51:23;;;;;;;0.30;0.10;;;-0.90;99.90;;;;;;5049051;28;20835;-91
2022/04/11 04:53:50;;;;;;;0.30;0.10;;;-0.80;99.90;;;;;;5061327;28;20204;-89
2022/04/11 04:56:17;;;;;;;0.30;0.20;;;-0.80;99.90;;;;;;5071444;28;20439;-87
2022/04/11 04:58:45;;;;;;;0.30;0.10;;;-0.70;99.90;;;;;;5055578;28;20455;-88
2022/04/11 05:01:12;;;;;;;0.30;0.10;;;-0.70;99.90;;;;;;5053292;28;20496;-86
2022/04/11 05:03:39;;;;;;;0.30;0.10;;;-0.60;99.90;;;;;;5047439;28;20463;-88
2022/04/11 05:06:08;;;;;;;0.30;0.10;;;-0.50;99.90;;;;;;5051703;28;20471;-86
2022/04/11 05:08:35;;;;;;;0.30;0.10;;;-0.30;99.90;;;;;;5061823;28;20462;-88
2022/04/11 05:11:02;;;;;;;0.30;0.10;;;-0.30;99.90;;;;;;5052399;28;20256;-87
2022/04/11 05:13:29;;;;;;;0.30;0.10;;;-0.10;99.90;;;;;;5054613;28;20209;-87
2022/04/11 05:15:56;;;;;;;0.30;0.10;;;0.10;99.90;;;;;;5049517;28;20532;-87
2022/04/11 05:18:24;;;;;;;0.30;0.10;;;0.20;99.90;;;;;;5063415;28;21248;-91
2022/04/11 05:20:51;;;;;;;0.30;0.20;;;0.30;99.90;;;;;;5054222;28;20521;-90
2022/04/11 05:23:21;;;;;;;0.30;0.10;;;0.30;99.90;;;;;;5059206;28;20472;-88
2022/04/11 05:25:48;;;;;;;0.30;0.10;;;0.40;99.90;;;;;;5052787;28;20460;-90
2022/04/11 05:28:15;;;;;;;0.30;0.10;;;0.60;99.90;;;;;;5060337;28;20932;-90
2022/04/11 05:30:42;;;;;;;0.30;0.10;;;0.80;99.90;;;;;;5053573;28;20550;-87
2022/04/11 05:33:09;;;;;;;0.30;0.10;;;0.90;99.90;;;;;;5061630;28;20505;-91
2022/04/11 05:35:36;;;;;;;0.30;0.20;;;0.90;99.90;;;;;;5062929;28;20546;-86
2022/04/11 05:38:03;;;;;;;0.30;0.10;;;1.00;99.90;;;;;;5055047;28;20460;-90
2022/04/11 05:40:31;;;;;;;0.30;0.10;;;1.10;99.90;;;;;;5058241;28;20540;-88
2022/04/11 05:42:58;;;;;;;0.30;0.10;;;1.20;99.90;;;;;;5050721;28;20522;-89
2022/04/11 05:45:25;;;;;;;0.30;0.17;;;1.30;99.90;;;;;;5047547;28;20455;-87
2022/04/11 05:47:52;;;;;;;0.30;0.10;;;1.40;99.90;;;;;;5053677;28;20826;-87
2022/04/11 05:50:20;;;;;;;0.30;0.20;;;1.50;99.90;;;;;;5054719;28;20637;-90
2022/04/11 05:52:50;;;;;;;0.30;0.10;;;1.50;99.90;;;;;;5052791;28;20533;-88
2022/04/11 05:55:17;;;;;;;0.30;0.10;;;1.50;99.90;;;;;;5048451;28;20460;-88
2022/04/11 05:57:45;;;;;;;0.30;0.20;;;1.70;99.90;;;;;;5041179;28;20498;-86
2022/04/11 06:00:13;;;;;;;0.30;0.10;;;1.80;99.90;;;;;;5047090;28;20537;-90
2022/04/11 06:02:40;;;;;;;0.30;0.10;;;1.70;99.90;;;;;;5055718;28;21001;-89
2022/04/11 06:05:09;;;;;;;0.50;0.50;;;1.80;99.90;;;;;;5061547;28;20474;-87
2022/04/11 06:07:36;;;;;;;0.30;0.10;;;1.90;99.90;;;;;;5062196;28;20470;-85
2022/04/11 06:10:04;;;;;;;0.30;0.10;;;1.90;99.90;;;;;;5053327;28;20491;-85
2022/04/11 06:12:31;;;;;;;0.60;0.30;;;2.10;99.90;;;;;;5057178;28;20448;-85
2022/04/11 06:15:00;;;;;;;0.30;0.10;;;2.20;99.90;;;;;;5055696;28;20542;-85
2022/04/11 06:17:27;;;;;;;0.30;0.10;;;2.40;99.90;;;;;;5059810;28;20517;-88
2022/04/11 06:19:54;;;;;;;0.30;0.10;;;2.50;99.90;;;;;;5050366;28;20954;-87
2022/04/11 06:22:21;;;;;;;0.30;0.10;;;2.60;99.90;;;;;;5060342;28;20522;-87
2022/04/11 06:24:49;;;;;;;0.30;0.17;;;2.70;99.90;;;;;;5051217;28;20589;-87
2022/04/11 06:27:17;;;;;;;0.40;0.30;;;2.90;99.90;;;;;;5061387;28;20535;-89
2022/04/11 06:29:44;;;;;;;0.30;0.20;;;3.10;99.90;;;;;;5061388;28;20488;-89
2022/04/11 06:32:14;;;;;;;0.30;0.10;;;3.20;99.90;;;;;;5055513;28;20813;-93
2022/04/11 06:34:41;;;;;;;0.30;0.10;;;3.40;99.90;;;;;;5074988;28;20463;-88
2022/04/11 06:37:08;;;;;;;0.30;0.20;;;3.50;99.90;;;;;;5068813;28;20460;-87
2022/04/11 06:39:35;;;;;;;0.30;0.20;;;3.60;99.90;;;;;;5069259;28;20456;-87
2022/04/11 06:42:02;;;;;;;0.30;0.23;;;3.60;99.90;;;;;;5068205;28;20450;-87
2022/04/11 06:44:30;;;;;;;0.30;0.20;;;3.80;99.90;;;;;;5055577;28;20842;-86
2022/04/11 06:46:57;;;;;;;0.30;0.10;;;3.60;99.90;;;;;;5046569;28;20488;-84
2022/04/11 06:49:26;;;;;;;0.30;0.20;;;3.70;99.90;;;;;;5050552;28;20476;-89
2022/04/11 06:51:54;;;;;;;0.30;0.10;;;3.60;99.90;;;;;;5040861;28;20519;-86
2022/04/11 06:54:21;;;;;;;0.30;0.20;;;3.50;99.90;;;;;;5040611;28;20464;-86
2022/04/11 06:56:48;;;;;;;0.40;0.30;;;3.70;99.90;;;;;;5048077;28;20538;-86
2022/04/11 06:59:15;;;;;;;0.30;0.10;;;3.80;99.90;;;;;;5054459;28;20961;-86
2022/04/11 07:01:42;;;;;;;0.30;0.20;;;3.80;99.90;;;;;;5053327;28;20567;-86
2022/04/11 07:04:09;;;;;;;0.30;0.20;;;4.10;99.90;;;;;;5054633;28;20591;-85
2022/04/11 07:06:38;;;;;;;0.30;0.10;;;4.40;99.90;;;;;;5049840;28;20467;-87
2022/04/11 07:09:05;;;;;;;0.40;0.33;;;4.60;99.90;;;;;;5050416;28;20561;-83
2022/04/11 07:11:32;;;;;;;0.40;0.30;;;4.80;99.90;;;;;;5054902;28;20483;-85
2022/04/11 07:13:59;;;;;;;0.30;0.10;;;4.90;99.90;;;;;;5048537;28;20465;-82
2022/04/11 07:16:26;;;;;;;0.30;0.10;;;4.70;99.90;;;;;;5048495;28;20476;-86
2022/04/11 07:18:53;;;;;;;0.30;0.13;;;4.80;99.90;;;;;;5037368;28;20457;-82
2022/04/11 07:21:20;;;;;;;0.30;0.10;;;4.90;99.90;;;;;;5040303;28;20485;-82
2022/04/11 07:23:48;;;;;;;0.30;0.20;;;5.30;99.90;;;;;;5039851;28;20479;-83
2022/04/11 07:26:15;;;;;;;0.30;0.10;;;5.40;99.90;;;;;;5054620;28;20456;-82
2022/04/11 07:28:43;;;;;;;0.30;0.20;;;5.30;99.90;;;;;;5046759;28;20460;-81
2022/04/11 07:31:10;;;;;;;0.40;0.20;;;5.10;99.90;;;;;;5049159;28;20479;-81
2022/04/11 07:33:37;;;;;;;0.30;0.10;;;5.10;99.90;;;;;;5063369;28;20525;-82
2022/04/11 07:36:04;;;;;;;0.30;0.17;;;5.40;99.90;;;;;;5047489;28;21036;-81
2022/04/11 07:38:31;;;;;;;0.30;0.10;;;5.30;99.90;;;;;;5052384;28;20538;-82
2022/04/11 07:40:59;;;;;;;0.30;0.20;;;5.40;99.90;;;;;;5057492;28;21013;-85
2022/04/11 07:43:26;;;;;;;0.30;0.10;;;5.80;99.90;;;;;;5053461;28;20456;-82
2022/04/11 07:45:53;;;;;;;0.30;0.20;;;5.90;99.90;;;;;;5058244;28;20463;-84
2022/04/11 07:48:21;;;;;;;0.30;0.20;;;6.10;99.90;;;;;;5048631;28;20454;-84
2022/04/11 07:50:48;;;;;;;0.30;0.10;;;6.20;99.90;;;;;;5067805;28;20496;-82
2022/04/11 07:53:15;;;;;;;0.30;0.10;;;6.20;99.90;;;;;;5057827;28;20525;-83
2022/04/11 07:55:44;;;;;;;0.30;0.10;;;6.40;99.90;;;;;;5050985;28;20457;-84
2022/04/11 07:58:13;;;;;;;2.20;1.30;;;6.40;99.90;;;;;;5050833;28;20524;-84
2022/04/11 08:00:40;;;;;;;0.40;0.23;;;6.80;99.90;;;;;;5057671;28;20459;-83
2022/04/11 08:03:07;;;;;;;0.30;0.20;;;7.10;99.90;;;;;;5053110;28;20479;-85
2022/04/11 08:05:34;;;;;;;0.30;0.10;;;7.50;99.90;;;;;;5055629;28;20533;-84
2022/04/11 08:08:01;;;;;;;0.60;0.60;;;7.40;99.90;;;;;;5054979;28;20475;-85
2022/04/11 08:10:28;;;;;;;0.40;0.37;;;7.60;99.90;;;;;;5049651;28;20475;-85
2022/04/11 08:12:57;;;;;;;0.30;0.10;;;7.80;99.90;;;;;;5048913;28;20510;-85
2022/04/11 08:15:26;;;;;;;0.30;0.20;;;7.80;99.90;;;;;;5043931;28;20465;-83
2022/04/11 08:17:55;;;;;;;0.30;0.10;;;7.90;99.90;;;;;;5042560;28;20455;-84
2022/04/11 08:20:22;;;;;;;0.53;0.50;;;7.80;99.90;;;;;;5050579;28;20484;-83
2022/04/11 08:22:49;;;;;;;0.30;0.20;;;8.20;99.90;;;;;;5054324;28;21326;-86
2022/04/11 08:25:16;;;;;;;0.40;0.30;;;8.60;99.90;;;;;;5056168;28;20513;-85
2022/04/11 08:27:44;;;;;;;2.13;2.00;;;8.40;99.60;;;;;;5050853;28;20479;-83
2022/04/11 08:30:12;;;;;;;0.30;0.20;;;8.50;97.80;;;;;;5060500;28;20484;-85
2022/04/11 08:32:41;;;;;;;0.80;0.73;;;8.30;96.20;;;;;;5061117;28;20539;-84
2022/04/11 08:35:10;;;;;;;0.50;0.47;;;8.00;98.30;;;;;;5051296;28;20468;-85
2022/04/11 08:37:40;;;;;;;0.30;0.10;;;8.50;98.70;;;;;;5060769;28;20488;-84
2022/04/11 08:40:10;;;;;;;0.30;0.20;;;8.70;98.50;;;;;;5051158;28;21055;-83
2022/04/11 08:42:38;;;;;;;0.30;0.10;;;8.50;96.00;;;;;;5047130;28;20891;-83
2022/04/11 08:45:06;;;;;;;0.30;0.20;;;8.40;97.00;;;;;;5055716;28;20543;-85
2022/04/11 08:47:33;;;;;;;0.30;0.20;;;8.70;96.80;;;;;;5055854;28;20855;-84
2022/04/11 08:50:04;;;;;;;0.50;0.40;;;8.70;95.30;;;;;;5059721;28;20463;-86
2022/04/11 08:52:33;;;;;;;0.33;0.30;;;8.80;95.50;;;;;;5050462;28;20464;-83
2022/04/11 08:55:00;;;;;;;0.67;0.67;;;8.90;97.40;;;;;;5051439;28;20461;-84
2022/04/11 08:57:27;;;;;;;0.30;0.20;;;9.10;95.80;;;;;;5044621;28;20451;-85
2022/04/11 08:59:55;;;;;;;0.30;0.20;;;9.20;94.80;;;;;;5052325;28;20514;-83
2022/04/11 09:02:32;;;;;;;0.60;0.50;;;9.30;94.20;;;;;;5047189;28;20460;-83
2022/04/11 09:04:59;;;;;;;0.50;0.50;;;9.10;93.30;;;;;;5049181;28;20457;-82
2022/04/11 09:07:28;;;;;;;0.30;0.20;;;9.20;94.00;;;;;;5045493;28;20982;-84
2022/04/11 09:10:00;;;;;;;0.37;0.17;;;9.60;95.40;;;;;;5058830;28;20527;-82
2022/04/11 09:12:27;;;;;;;0.30;0.10;;;9.90;93.90;;;;;;5060146;28;20544;-83
2022/04/11 09:14:56;;;;;;;0.40;0.40;;;10.30;92.90;;;;;;5054549;28;21022;-81
2022/04/11 09:17:24;;;;;;;0.30;0.20;;;10.20;91.20;;;;;;5039420;28;20472;-83
2022/04/11 09:20:06;;;;;;;0.40;0.30;;;10.10;92.10;;;;;;5044081;28;21041;-83
2022/04/11 09:22:34;;;;;;;0.30;0.20;;;10.00;92.10;;;;;;5040682;28;20949;-84
2022/04/11 09:25:09;;;;;;;0.30;0.20;;;9.70;90.20;;;;;;5050733;28;20469;-82
2022/04/11 09:27:36;;;;;;;0.30;0.20;;;9.80;92.40;;;;;;5036929;28;21011;-82
2022/04/11 09:30:19;;;;;;;0.50;0.40;;;9.90;91.40;;;;;;5046536;28;20453;-85
2022/04/11 09:33:00;;;;;;;0.30;0.20;;;9.90;92.50;;;;;;5052753;28;20573;-83
2022/04/11 09:35:29;;;;;;;0.30;0.20;;;9.60;90.60;;;;;;5064103;28;20483;-82
2022/04/11 09:38:11;;;;;;;0.30;0.20;;;9.60;91.80;;;;;;5055328;28;20440;-84
2022/04/11 09:40:40;;;;;;;0.50;0.50;;;9.70;91.10;;;;;;5052836;28;20546;-85
2022/04/11 09:43:07;;;;;;;0.30;0.20;;;9.80;90.20;;;;;;5052912;28;20510;-82
2022/04/11 09:45:40;;;;;;;0.30;0.10;;;10.10;90.50;;;;;;5052955;28;20941;-82
2022/04/11 09:48:08;;;;;;;0.77;0.77;;;10.50;88.40;;;;;;5054629;28;20945;-84
2022/04/11 09:50:36;;;;;;;0.30;0.20;;;10.30;88.00;;;;;;5060469;28;20498;-84
2022/04/11 09:53:15;;;;;;;0.30;0.20;;;10.20;90.30;;;;;;5065576;28;20444;-82
2022/04/11 09:55:44;;;;;;;0.30;0.20;;;10.30;87.80;;;;;;5057710;28;20550;-83
2022/04/11 09:58:12;;;;;;;0.30;0.20;;;10.60;88.20;;;;;;5063712;28;20448;-82
2022/04/11 10:00:40;;;;;;;0.30;0.20;;;10.60;87.10;;;;;;5061364;28;20452;-81
2022/04/11 10:03:08;;;;;;;0.40;0.30;;;10.50;84.60;;;;;;5054193;28;20494;-81
2022/04/11 10:05:36;;;;;;;0.50;0.40;;;10.60;87.10;;;;;;5054820;28;20475;-83
2022/04/11 10:08:05;;;;;;;0.30;0.20;;;10.40;84.50;;;;;;5059419;28;20513;-84
2022/04/11 10:10:35;;;;;;;0.30;0.20;;;10.70;84.40;;;;;;5059198;28;20563;-81
2022/04/11 10:13:03;;;;;;;0.30;0.20;;;10.80;83.90;;;;;;5052529;28;20929;-82
2022/04/11 10:15:30;;;;;;;0.30;0.20;;;11.30;85.70;;;;;;5061205;28;20461;-83
2022/04/11 10:17:58;;;;;;;0.30;0.20;;;11.30;80.80;;;;;;5051719;28;20441;-83
2022/04/11 10:20:30;;;;;;;0.30;0.20;;;11.00;75.40;;;;;;5062637;28;20481;-82
2022/04/11 10:23:09;;;;;;;0.30;0.20;;;10.80;77.20;;;;;;5048206;28;20463;-83
2022/04/11 10:25:44;;;;;;;0.30;0.20;;;11.00;81.70;;;;;;5051702;28;20482;-83
2022/04/11 10:28:18;;;;;;;0.40;0.20;;;10.90;74.10;;;;;;5055729;28;20514;-81
2022/04/11 10:30:46;;;;;;;0.30;0.20;;;11.10;81.80;;;;;;5040027;28;20481;-83
2022/04/11 10:33:13;;;;;;;0.30;0.20;;;11.10;80.40;;;;;;5065718;28;20959;-82
2022/04/11 10:35:42;;;;;;;0.30;0.20;;;11.00;84.30;;;;;;5045260;28;21051;-83
2022/04/11 10:38:11;;;;;;;1.10;1.07;;;10.90;76.00;;;;;;5047955;28;21040;-88
2022/04/11 10:40:47;;;;;;;0.30;0.20;;;11.20;77.90;;;;;;5051896;28;20463;-82
2022/04/11 10:43:18;;;;;;;0.30;0.20;;;11.20;75.80;;;;;;5054178;28;20484;-81
2022/04/11 10:45:57;;;;;;;0.30;0.20;;;11.60;79.10;;;;;;5036685;28;20468;-83
2022/04/11 10:48:58;;;;;;;0.30;0.20;;;11.80;75.80;;;;;;5045091;28;20458;-82
2022/04/11 10:51:25;;;;;;;0.30;0.20;;;11.50;75.00;;;;;;5060847;28;20483;-82
2022/04/11 10:54:18;;;;;;;0.30;0.20;;;11.80;73.80;;;;;;5048418;28;20461;-81
2022/04/11 10:56:53;;;;;;;0.30;0.20;;;11.80;71.80;;;;;;5053337;28;20453;-82
2022/04/11 10:59:28;;;;;;;0.30;0.20;;;11.60;69.60;;;;;;5045001;28;20473;-83
2022/04/11 11:01:59;;;;;;;0.40;0.40;;;11.50;73.20;;;;;;5054727;28;20456;-82
2022/04/11 11:04:32;;;;;;;0.30;0.20;;;11.70;69.80;;;;;;5053465;28;20531;-81
2022/04/11 11:07:28;;;;;;;0.30;0.20;;;11.60;68.70;;;;;;5050838;28;20455;-82
2022/04/11 11:09:57;;;;;;;0.30;0.20;;;11.30;71.60;;;;;;5047403;28;21613;-82
2022/04/11 11:12:26;;;;;;;0.30;0.20;;;11.80;70.30;;;;;;5045906;28;20887;-81
2022/04/11 11:14:53;;;;;;;0.30;0.20;;;11.60;70.10;;;;;;5054105;28;20452;-81
2022/04/11 11:17:20;;;;;;;0.30;0.20;;;11.70;70.50;;;;;;5061549;28;20910;-82
2022/04/11 11:20:05;;;;;;;0.30;0.20;;;11.90;70.70;;;;;;5060049;28;20839;-82
2022/04/11 11:22:34;;;;;;;0.40;0.30;;;11.80;72.60;;;;;;5051339;28;20460;-83
2022/04/11 11:25:18;;;;;;;0.30;0.20;;;11.90;68.80;;;;;;5049377;28;20459;-82
2022/04/11 11:27:49;;;;;;;0.30;0.20;;;11.70;73.80;;;;;;5048815;28;20468;-83
2022/04/11 11:30:16;;;;;;;0.30;0.20;;;11.90;69.10;;;;;;5054462;28;20591;-80
2022/04/11 11:32:44;;;;;;;0.40;0.33;;;11.50;64.40;;;;;;5058186;28;20553;-81
2022/04/11 11:35:11;;;;;;;0.30;0.20;;;11.80;70.30;;;;;;5072920;28;20489;-80
2022/04/11 11:37:39;;;;;;;1.27;0.30;;;11.90;67.20;;;;;;5056456;28;20502;-80
2022/04/11 11:40:09;;;;;;;0.30;0.20;;;12.20;72.40;;;;;;5055758;28;20487;-80
2022/04/11 11:42:38;;;;;;;0.30;0.20;;;12.40;69.80;;;;;;5067144;28;20517;-83
2022/04/11 11:45:08;;;;;;;2.40;0.20;;;12.40;70.80;;;;;;5057535;28;20515;-80
2022/04/11 11:47:35;;;;;;;0.30;0.20;;;12.40;67.30;;;;;;5059014;28;20462;-81
2022/04/11 11:50:04;;;;;;;0.30;0.20;;;12.10;67.00;;;;;;5067362;28;20452;-80
2022/04/11 11:52:31;;;;;;;0.30;0.20;;;11.80;65.50;;;;;;5057728;28;20994;-81
2022/04/11 11:54:58;;;;;;;0.30;0.20;;;12.00;68.80;;;;;;5057020;28;20536;-81
2022/04/11 11:57:27;;;;;;;0.40;0.20;;;12.60;72.30;;;;;;5061975;28;20452;-84
2022/04/11 11:59:56;;;;;;;0.30;0.20;;;12.90;67.50;;;;;;5059723;28;20949;-80
2022/04/11 12:05:20;;;;;;;0.30;0.20;;;12.80;69.20;;;;;;5050507;28;20466;-81
2022/04/11 12:07:47;;;;;;;0.30;0.20;;;12.50;72.10;;;;;;5048931;28;20454;-82
2022/04/11 12:10:15;;;;;;;0.30;0.20;;;12.40;69.30;;;;;;5060005;28;20464;-81
2022/04/11 12:12:45;;;;;;;0.30;0.20;;;12.20;66.70;;;;;;5051218;28;20481;-81
2022/04/11 12:15:12;;;;;;;0.30;0.20;;;12.10;65.00;;;;;;5063820;28;20907;-81
2022/04/11 12:17:42;;;;;;;0.30;0.20;;;11.90;65.70;;;;;;5048222;28;20949;-81
2022/04/11 12:20:13;;;;;;;0.30;0.20;;;12.00;68.00;;;;;;5043251;28;20574;-82
2022/04/11 12:22:41;;;;;;;0.30;0.20;;;12.00;68.40;;;;;;5055882;28;20524;-80
2022/04/11 12:25:24;;;;;;;0.30;0.20;;;12.20;71.20;;;;;;5049279;28;20477;-82
2022/04/11 12:27:51;;;;;;;0.30;0.20;;;12.40;71.40;;;;;;5055849;28;20466;-80
2022/04/11 12:30:18;;;;;;;0.30;0.20;;;12.40;72.30;;;;;;5064605;28;20520;-85
2022/04/11 12:32:47;;;;;;;0.60;0.20;;;12.50;73.60;;;;;;5056830;28;20519;-81
2022/04/11 12:35:16;;;;;;;0.30;0.20;;;12.70;74.80;;;;;;5054252;28;20466;-82
2022/04/11 12:37:49;;;;;;;0.40;0.40;;;12.80;69.40;;;;;;5051298;28;20550;-82
2022/04/11 12:40:17;;;;;;;0.30;0.20;;;12.80;70.60;;;;;;5051451;28;20488;-84
2022/04/11 12:42:44;;;;;;;0.30;0.20;;;12.80;71.30;;;;;;5052702;28;20962;-83
2022/04/11 12:45:14;;;;;;;0.30;0.20;;;12.90;69.70;;;;;;5054360;28;20544;-80
2022/04/11 12:48:02;;;;;;;0.40;0.30;;;12.80;71.80;;;;;;5049848;28;21017;-80
2022/04/11 12:50:30;;;;;;;0.40;0.30;;;12.90;73.90;;;;;;5039827;28;20507;-81
2022/04/11 12:52:57;;;;;;;0.30;0.20;;;13.00;71.60;;;;;;5064187;28;21068;-82
2022/04/11 12:55:26;;;;;;;0.30;0.20;;;12.90;69.70;;;;;;5058314;28;20527;-79
2022/04/11 12:58:05;;;;;;;0.30;0.20;;;13.10;72.50;;;;;;5050955;28;20473;-81
2022/04/11 13:00:33;;;;;;;0.30;0.20;;;12.80;67.70;;;;;;5054434;28;20968;-81
2022/04/11 13:03:02;;;;;;;0.40;0.37;;;12.90;72.30;;;;;;5066212;28;20513;-81